sensor_id;sensor_type;location;lat;lon;timestamp;P1;durP1;ratioP1;P2;durP2;ratioP2
45033;SDS011;30771;47.988;-4.186;2023-11-21T00:01:59;18.35;;;2.83;;
45033;SDS011;30771;47.988;-4.186;2023-11-21T00:04:26;19.48;;;2.72;;
45033;SDS011;30771;47.988;-4.186;2023-11-21T00:06:53;21.73;;;2.45;;
45033;SDS011;30771;47.988;-4.186;2023-11-21T00:09:20;16.98;;;2.88;;
45033;SDS011;30771;47.988;-4.186;2023-11-21T00:11:47;23.38;;;3.08;;
45033;SDS011;30771;47.988;-4.186;2023-11-21T00:14:13;21.55;;;2.78;;
45033;SDS011;30771;47.988;-4.186;2023-11-21T00:16:40;19.85;;;4.45;;
45033;SDS011;30771;47.988;-4.186;2023-11-21T00:19:07;20.08;;;2.75;;
45033;SDS011;30771;47.988;-4.186;2023-11-21T00:21:34;17.08;;;2.22;;
45033;SDS011;30771;47.988;-4.186;2023-11-21T00:24:00;17.10;;;2.47;;
45033;SDS011;30771;47.988;-4.186;2023-11-21T00:26:27;13.18;;;1.92;;
45033;SDS011;30771;47.988;-4.186;2023-11-21T00:28:54;20.27;;;2.42;;
45033;SDS011;30771;47.988;-4.186;2023-11-21T00:31:20;14.70;;;2.30;;
45033;SDS011;30771;47.988;-4.186;2023-11-21T00:33:47;17.42;;;2.00;;
45033;SDS011;30771;47.988;-4.186;2023-11-21T00:36:14;13.88;;;2.13;;
45033;SDS011;30771;47.988;-4.186;2023-11-21T00:38:40;15.73;;;1.70;;
45033;SDS011;30771;47.988;-4.186;2023-11-21T00:41:07;12.43;;;2.13;;
45033;SDS011;30771;47.988;-4.186;2023-11-21T00:43:33;18.35;;;2.15;;
45033;SDS011;30771;47.988;-4.186;2023-11-21T00:46:03;12.93;;;2.35;;
45033;SDS011;30771;47.988;-4.186;2023-11-21T00:48:30;14.65;;;2.33;;
45033;SDS011;30771;47.988;-4.186;2023-11-21T00:50:57;19.20;;;2.00;;
45033;SDS011;30771;47.988;-4.186;2023-11-21T00:53:23;17.13;;;2.40;;
45033;SDS011;30771;47.988;-4.186;2023-11-21T00:55:50;16.75;;;2.13;;
45033;SDS011;30771;47.988;-4.186;2023-11-21T00:58:17;13.18;;;2.10;;
45033;SDS011;30771;47.988;-4.186;2023-11-21T01:00:43;12.77;;;2.10;;
45033;SDS011;30771;47.988;-4.186;2023-11-21T01:03:10;16.10;;;2.42;;
45033;SDS011;30771;47.988;-4.186;2023-11-21T01:05:37;11.85;;;2.40;;
45033;SDS011;30771;47.988;-4.186;2023-11-21T01:08:03;14.05;;;2.03;;
45033;SDS011;30771;47.988;-4.186;2023-11-21T01:10:30;19.60;;;2.30;;
45033;SDS011;30771;47.988;-4.186;2023-11-21T01:12:57;12.38;;;1.75;;
45033;SDS011;30771;47.988;-4.186;2023-11-21T01:15:23;16.20;;;2.03;;
45033;SDS011;30771;47.988;-4.186;2023-11-21T01:17:50;17.65;;;2.10;;
45033;SDS011;30771;47.988;-4.186;2023-11-21T01:20:17;14.00;;;2.00;;
45033;SDS011;30771;47.988;-4.186;2023-11-21T01:22:44;11.35;;;1.98;;
45033;SDS011;30771;47.988;-4.186;2023-11-21T01:25:11;14.45;;;1.92;;
45033;SDS011;30771;47.988;-4.186;2023-11-21T01:27:37;10.85;;;1.83;;
45033;SDS011;30771;47.988;-4.186;2023-11-21T01:30:04;14.80;;;1.92;;
45033;SDS011;30771;47.988;-4.186;2023-11-21T01:32:31;18.90;;;2.05;;
45033;SDS011;30771;47.988;-4.186;2023-11-21T01:34:59;15.60;;;2.05;;
45033;SDS011;30771;47.988;-4.186;2023-11-21T01:37:26;13.90;;;2.00;;
45033;SDS011;30771;47.988;-4.186;2023-11-21T01:39:56;14.98;;;1.50;;
45033;SDS011;30771;47.988;-4.186;2023-11-21T01:42:22;11.02;;;1.88;;
45033;SDS011;30771;47.988;-4.186;2023-11-21T01:44:49;17.33;;;2.20;;
45033;SDS011;30771;47.988;-4.186;2023-11-21T01:47:16;14.82;;;1.65;;
45033;SDS011;30771;47.988;-4.186;2023-11-21T01:49:43;12.55;;;1.83;;
45033;SDS011;30771;47.988;-4.186;2023-11-21T01:52:11;16.23;;;2.17;;
45033;SDS011;30771;47.988;-4.186;2023-11-21T01:54:38;14.20;;;1.98;;
45033;SDS011;30771;47.988;-4.186;2023-11-21T01:57:06;14.50;;;1.70;;
45033;SDS011;30771;47.988;-4.186;2023-11-21T01:59:37;15.48;;;2.00;;
45033;SDS011;30771;47.988;-4.186;2023-11-21T02:02:05;10.55;;;1.80;;
45033;SDS011;30771;47.988;-4.186;2023-11-21T02:04:34;13.77;;;2.25;;
45033;SDS011;30771;47.988;-4.186;2023-11-21T02:07:02;10.50;;;1.60;;
45033;SDS011;30771;47.988;-4.186;2023-11-21T02:09:29;13.20;;;2.40;;
45033;SDS011;30771;47.988;-4.186;2023-11-21T02:11:56;11.70;;;1.67;;
45033;SDS011;30771;47.988;-4.186;2023-11-21T02:14:25;20.63;;;2.38;;
45033;SDS011;30771;47.988;-4.186;2023-11-21T02:16:52;10.10;;;1.60;;
45033;SDS011;30771;47.988;-4.186;2023-11-21T02:19:19;8.27;;;1.67;;
45033;SDS011;30771;47.988;-4.186;2023-11-21T02:21:52;13.25;;;1.77;;
45033;SDS011;30771;47.988;-4.186;2023-11-21T02:24:20;15.27;;;2.15;;
45033;SDS011;30771;47.988;-4.186;2023-11-21T02:26:47;10.48;;;1.67;;
45033;SDS011;30771;47.988;-4.186;2023-11-21T02:29:14;13.95;;;2.40;;
45033;SDS011;30771;47.988;-4.186;2023-11-21T02:31:41;13.98;;;2.30;;
45033;SDS011;30771;47.988;-4.186;2023-11-21T02:34:08;14.57;;;1.90;;
45033;SDS011;30771;47.988;-4.186;2023-11-21T02:36:34;18.13;;;2.42;;
45033;SDS011;30771;47.988;-4.186;2023-11-21T02:39:01;11.35;;;2.08;;
45033;SDS011;30771;47.988;-4.186;2023-11-21T02:41:28;10.57;;;2.38;;
45033;SDS011;30771;47.988;-4.186;2023-11-21T02:43:55;11.57;;;1.85;;
45033;SDS011;30771;47.988;-4.186;2023-11-21T02:46:22;11.90;;;2.20;;
45033;SDS011;30771;47.988;-4.186;2023-11-21T02:48:48;18.15;;;2.35;;
45033;SDS011;30771;47.988;-4.186;2023-11-21T02:51:15;13.68;;;2.15;;
45033;SDS011;30771;47.988;-4.186;2023-11-21T02:53:42;16.77;;;1.92;;
45033;SDS011;30771;47.988;-4.186;2023-11-21T02:56:08;15.27;;;2.33;;
45033;SDS011;30771;47.988;-4.186;2023-11-21T02:58:35;10.98;;;1.63;;
45033;SDS011;30771;47.988;-4.186;2023-11-21T03:01:01;12.30;;;2.25;;
45033;SDS011;30771;47.988;-4.186;2023-11-21T03:03:28;10.70;;;1.40;;
45033;SDS011;30771;47.988;-4.186;2023-11-21T03:05:55;10.98;;;1.50;;
45033;SDS011;30771;47.988;-4.186;2023-11-21T03:08:21;14.23;;;1.35;;
45033;SDS011;30771;47.988;-4.186;2023-11-21T03:10:48;10.95;;;1.40;;
45033;SDS011;30771;47.988;-4.186;2023-11-21T03:13:15;8.55;;;1.10;;
45033;SDS011;30771;47.988;-4.186;2023-11-21T03:15:41;10.38;;;1.38;;
45033;SDS011;30771;47.988;-4.186;2023-11-21T03:18:08;14.15;;;1.88;;
45033;SDS011;30771;47.988;-4.186;2023-11-21T03:20:35;10.30;;;1.67;;
45033;SDS011;30771;47.988;-4.186;2023-11-21T03:23:01;12.15;;;2.10;;
45033;SDS011;30771;47.988;-4.186;2023-11-21T03:25:28;12.88;;;1.70;;
45033;SDS011;30771;47.988;-4.186;2023-11-21T03:27:55;9.27;;;1.98;;
45033;SDS011;30771;47.988;-4.186;2023-11-21T03:30:21;10.63;;;1.42;;
45033;SDS011;30771;47.988;-4.186;2023-11-21T03:32:48;9.20;;;1.20;;
45033;SDS011;30771;47.988;-4.186;2023-11-21T03:35:15;14.27;;;1.40;;
45033;SDS011;30771;47.988;-4.186;2023-11-21T03:37:41;10.85;;;1.27;;
45033;SDS011;30771;47.988;-4.186;2023-11-21T03:40:08;6.90;;;1.40;;
45033;SDS011;30771;47.988;-4.186;2023-11-21T03:42:35;12.88;;;2.35;;
45033;SDS011;30771;47.988;-4.186;2023-11-21T03:45:02;18.15;;;2.20;;
45033;SDS011;30771;47.988;-4.186;2023-11-21T03:47:28;13.43;;;2.30;;
45033;SDS011;30771;47.988;-4.186;2023-11-21T03:49:55;16.38;;;2.08;;
45033;SDS011;30771;47.988;-4.186;2023-11-21T03:52:22;19.38;;;2.63;;
45033;SDS011;30771;47.988;-4.186;2023-11-21T03:54:49;18.10;;;2.65;;
45033;SDS011;30771;47.988;-4.186;2023-11-21T03:57:15;21.88;;;2.92;;
45033;SDS011;30771;47.988;-4.186;2023-11-21T03:59:42;19.27;;;2.85;;
45033;SDS011;30771;47.988;-4.186;2023-11-21T04:02:09;20.65;;;2.90;;
45033;SDS011;30771;47.988;-4.186;2023-11-21T04:04:36;26.80;;;3.25;;
45033;SDS011;30771;47.988;-4.186;2023-11-21T04:07:03;29.27;;;3.17;;
45033;SDS011;30771;47.988;-4.186;2023-11-21T04:09:31;25.70;;;2.42;;
45033;SDS011;30771;47.988;-4.186;2023-11-21T04:11:57;18.10;;;2.33;;
45033;SDS011;30771;47.988;-4.186;2023-11-21T04:14:24;23.85;;;3.45;;
45033;SDS011;30771;47.988;-4.186;2023-11-21T04:16:51;23.38;;;3.40;;
45033;SDS011;30771;47.988;-4.186;2023-11-21T04:19:17;25.48;;;2.65;;
45033;SDS011;30771;47.988;-4.186;2023-11-21T04:21:44;26.15;;;3.10;;
45033;SDS011;30771;47.988;-4.186;2023-11-21T04:24:11;18.50;;;2.75;;
45033;SDS011;30771;47.988;-4.186;2023-11-21T04:26:38;16.27;;;2.63;;
45033;SDS011;30771;47.988;-4.186;2023-11-21T04:29:04;16.10;;;2.80;;
45033;SDS011;30771;47.988;-4.186;2023-11-21T04:31:31;16.38;;;2.40;;
45033;SDS011;30771;47.988;-4.186;2023-11-21T04:33:58;11.13;;;2.25;;
45033;SDS011;30771;47.988;-4.186;2023-11-21T04:36:24;11.32;;;1.80;;
45033;SDS011;30771;47.988;-4.186;2023-11-21T04:38:51;11.23;;;1.60;;
45033;SDS011;30771;47.988;-4.186;2023-11-21T04:41:18;7.85;;;1.75;;
45033;SDS011;30771;47.988;-4.186;2023-11-21T04:43:44;11.43;;;1.55;;
45033;SDS011;30771;47.988;-4.186;2023-11-21T04:46:11;9.77;;;1.50;;
45033;SDS011;30771;47.988;-4.186;2023-11-21T04:48:38;9.43;;;1.98;;
45033;SDS011;30771;47.988;-4.186;2023-11-21T04:51:04;11.30;;;1.77;;
45033;SDS011;30771;47.988;-4.186;2023-11-21T04:53:31;11.60;;;1.70;;
45033;SDS011;30771;47.988;-4.186;2023-11-21T04:55:58;13.30;;;2.50;;
45033;SDS011;30771;47.988;-4.186;2023-11-21T04:58:25;11.68;;;1.52;;
45033;SDS011;30771;47.988;-4.186;2023-11-21T05:00:52;9.98;;;1.95;;
45033;SDS011;30771;47.988;-4.186;2023-11-21T05:03:18;17.75;;;2.42;;
45033;SDS011;30771;47.988;-4.186;2023-11-21T05:05:45;18.55;;;2.40;;
45033;SDS011;30771;47.988;-4.186;2023-11-21T05:08:12;12.77;;;2.20;;
45033;SDS011;30771;47.988;-4.186;2023-11-21T05:10:38;11.82;;;2.10;;
45033;SDS011;30771;47.988;-4.186;2023-11-21T05:13:05;12.38;;;2.00;;
45033;SDS011;30771;47.988;-4.186;2023-11-21T05:15:32;9.50;;;2.03;;
45033;SDS011;30771;47.988;-4.186;2023-11-21T05:17:58;11.82;;;2.38;;
45033;SDS011;30771;47.988;-4.186;2023-11-21T05:20:25;14.48;;;2.28;;
45033;SDS011;30771;47.988;-4.186;2023-11-21T05:22:52;14.60;;;2.60;;
45033;SDS011;30771;47.988;-4.186;2023-11-21T05:25:18;12.50;;;3.13;;
45033;SDS011;30771;47.988;-4.186;2023-11-21T05:27:45;17.88;;;2.70;;
45033;SDS011;30771;47.988;-4.186;2023-11-21T05:30:13;19.58;;;2.67;;
45033;SDS011;30771;47.988;-4.186;2023-11-21T05:32:40;22.67;;;2.70;;
45033;SDS011;30771;47.988;-4.186;2023-11-21T05:35:07;20.25;;;2.60;;
45033;SDS011;30771;47.988;-4.186;2023-11-21T05:37:34;16.40;;;2.40;;
45033;SDS011;30771;47.988;-4.186;2023-11-21T05:40:01;26.60;;;3.28;;
45033;SDS011;30771;47.988;-4.186;2023-11-21T05:42:28;25.85;;;3.83;;
45033;SDS011;30771;47.988;-4.186;2023-11-21T05:44:54;23.23;;;2.40;;
45033;SDS011;30771;47.988;-4.186;2023-11-21T05:47:21;19.88;;;2.97;;
45033;SDS011;30771;47.988;-4.186;2023-11-21T05:49:48;23.08;;;3.38;;
45033;SDS011;30771;47.988;-4.186;2023-11-21T05:52:15;22.40;;;2.58;;
45033;SDS011;30771;47.988;-4.186;2023-11-21T05:54:41;25.10;;;3.35;;
45033;SDS011;30771;47.988;-4.186;2023-11-21T05:57:08;26.77;;;3.45;;
45033;SDS011;30771;47.988;-4.186;2023-11-21T05:59:35;23.48;;;3.38;;
45033;SDS011;30771;47.988;-4.186;2023-11-21T06:02:01;19.48;;;3.13;;
45033;SDS011;30771;47.988;-4.186;2023-11-21T06:04:28;20.02;;;2.70;;
45033;SDS011;30771;47.988;-4.186;2023-11-21T06:06:55;20.80;;;3.08;;
45033;SDS011;30771;47.988;-4.186;2023-11-21T06:09:22;27.45;;;3.53;;
45033;SDS011;30771;47.988;-4.186;2023-11-21T06:11:48;17.35;;;2.50;;
45033;SDS011;30771;47.988;-4.186;2023-11-21T06:14:15;28.05;;;3.50;;
45033;SDS011;30771;47.988;-4.186;2023-11-21T06:16:41;21.02;;;3.20;;
45033;SDS011;30771;47.988;-4.186;2023-11-21T06:19:08;25.73;;;4.15;;
45033;SDS011;30771;47.988;-4.186;2023-11-21T06:21:35;27.90;;;3.15;;
45033;SDS011;30771;47.988;-4.186;2023-11-21T06:24:01;25.20;;;3.05;;
45033;SDS011;30771;47.988;-4.186;2023-11-21T06:26:28;23.73;;;3.72;;
45033;SDS011;30771;47.988;-4.186;2023-11-21T06:28:55;26.08;;;4.35;;
45033;SDS011;30771;47.988;-4.186;2023-11-21T06:31:21;23.58;;;4.05;;
45033;SDS011;30771;47.988;-4.186;2023-11-21T06:33:48;21.20;;;3.40;;
45033;SDS011;30771;47.988;-4.186;2023-11-21T06:36:15;28.52;;;3.35;;
45033;SDS011;30771;47.988;-4.186;2023-11-21T06:38:41;21.30;;;2.72;;
45033;SDS011;30771;47.988;-4.186;2023-11-21T06:41:08;22.10;;;3.60;;
45033;SDS011;30771;47.988;-4.186;2023-11-21T06:43:34;19.02;;;3.63;;
45033;SDS011;30771;47.988;-4.186;2023-11-21T06:46:01;21.10;;;3.15;;
45033;SDS011;30771;47.988;-4.186;2023-11-21T06:48:28;20.50;;;3.30;;
45033;SDS011;30771;47.988;-4.186;2023-11-21T06:50:54;24.55;;;4.13;;
45033;SDS011;30771;47.988;-4.186;2023-11-21T06:53:21;24.20;;;3.50;;
45033;SDS011;30771;47.988;-4.186;2023-11-21T06:55:48;21.25;;;2.78;;
45033;SDS011;30771;47.988;-4.186;2023-11-21T06:58:14;21.70;;;3.17;;
45033;SDS011;30771;47.988;-4.186;2023-11-21T07:00:41;17.35;;;2.97;;
45033;SDS011;30771;47.988;-4.186;2023-11-21T07:03:08;17.88;;;3.20;;
45033;SDS011;30771;47.988;-4.186;2023-11-21T07:05:34;26.33;;;3.67;;
45033;SDS011;30771;47.988;-4.186;2023-11-21T07:08:01;24.90;;;3.97;;
45033;SDS011;30771;47.988;-4.186;2023-11-21T07:10:28;19.40;;;3.08;;
45033;SDS011;30771;47.988;-4.186;2023-11-21T07:12:54;19.52;;;3.15;;
45033;SDS011;30771;47.988;-4.186;2023-11-21T07:15:21;18.45;;;4.00;;
45033;SDS011;30771;47.988;-4.186;2023-11-21T07:17:47;23.33;;;3.70;;
45033;SDS011;30771;47.988;-4.186;2023-11-21T07:20:14;23.20;;;3.58;;
45033;SDS011;30771;47.988;-4.186;2023-11-21T07:22:41;17.05;;;3.22;;
45033;SDS011;30771;47.988;-4.186;2023-11-21T07:25:08;20.67;;;3.17;;
45033;SDS011;30771;47.988;-4.186;2023-11-21T07:27:34;22.92;;;3.20;;
45033;SDS011;30771;47.988;-4.186;2023-11-21T07:30:01;24.77;;;3.65;;
45033;SDS011;30771;47.988;-4.186;2023-11-21T07:32:28;23.50;;;3.22;;
45033;SDS011;30771;47.988;-4.186;2023-11-21T07:34:55;23.73;;;3.75;;
45033;SDS011;30771;47.988;-4.186;2023-11-21T07:37:21;23.88;;;3.50;;
45033;SDS011;30771;47.988;-4.186;2023-11-21T07:39:48;30.05;;;4.40;;
45033;SDS011;30771;47.988;-4.186;2023-11-21T07:42:15;18.55;;;3.42;;
45033;SDS011;30771;47.988;-4.186;2023-11-21T07:44:41;34.30;;;4.55;;
45033;SDS011;30771;47.988;-4.186;2023-11-21T07:47:08;26.58;;;4.70;;
45033;SDS011;30771;47.988;-4.186;2023-11-21T07:49:35;30.83;;;4.70;;
45033;SDS011;30771;47.988;-4.186;2023-11-21T07:52:01;32.65;;;4.20;;
45033;SDS011;30771;47.988;-4.186;2023-11-21T07:54:28;32.80;;;5.03;;
45033;SDS011;30771;47.988;-4.186;2023-11-21T07:56:55;30.67;;;4.70;;
45033;SDS011;30771;47.988;-4.186;2023-11-21T07:59:21;35.17;;;5.28;;
45033;SDS011;30771;47.988;-4.186;2023-11-21T08:01:48;35.17;;;4.20;;
45033;SDS011;30771;47.988;-4.186;2023-11-21T08:04:14;36.10;;;4.57;;
45033;SDS011;30771;47.988;-4.186;2023-11-21T08:06:41;33.75;;;4.13;;
45033;SDS011;30771;47.988;-4.186;2023-11-21T08:09:08;36.17;;;4.93;;
45033;SDS011;30771;47.988;-4.186;2023-11-21T08:11:35;38.40;;;5.15;;
45033;SDS011;30771;47.988;-4.186;2023-11-21T08:14:01;37.00;;;4.57;;
45033;SDS011;30771;47.988;-4.186;2023-11-21T08:16:28;42.55;;;5.28;;
45033;SDS011;30771;47.988;-4.186;2023-11-21T08:18:55;29.90;;;4.13;;
45033;SDS011;30771;47.988;-4.186;2023-11-21T08:21:21;26.65;;;4.13;;
45033;SDS011;30771;47.988;-4.186;2023-11-21T08:23:48;37.97;;;5.07;;
45033;SDS011;30771;47.988;-4.186;2023-11-21T08:26:18;39.83;;;5.40;;
45033;SDS011;30771;47.988;-4.186;2023-11-21T08:28:44;36.85;;;5.20;;
45033;SDS011;30771;47.988;-4.186;2023-11-21T08:31:11;41.10;;;5.72;;
45033;SDS011;30771;47.988;-4.186;2023-11-21T08:33:39;52.10;;;5.90;;
45033;SDS011;30771;47.988;-4.186;2023-11-21T08:36:09;41.67;;;5.32;;
45033;SDS011;30771;47.988;-4.186;2023-11-21T08:38:35;36.70;;;5.72;;
45033;SDS011;30771;47.988;-4.186;2023-11-21T08:41:04;44.80;;;5.90;;
45033;SDS011;30771;47.988;-4.186;2023-11-21T08:43:31;46.35;;;5.50;;
45033;SDS011;30771;47.988;-4.186;2023-11-21T08:45:58;39.67;;;5.55;;
45033;SDS011;30771;47.988;-4.186;2023-11-21T08:48:25;43.15;;;5.25;;
45033;SDS011;30771;47.988;-4.186;2023-11-21T08:50:51;45.28;;;5.57;;
45033;SDS011;30771;47.988;-4.186;2023-11-21T08:53:18;36.33;;;5.30;;
45033;SDS011;30771;47.988;-4.186;2023-11-21T08:55:45;44.92;;;5.88;;
45033;SDS011;30771;47.988;-4.186;2023-11-21T08:58:11;36.83;;;4.50;;
45033;SDS011;30771;47.988;-4.186;2023-11-21T09:00:39;40.20;;;5.55;;
45033;SDS011;30771;47.988;-4.186;2023-11-21T09:03:06;48.37;;;6.03;;
45033;SDS011;30771;47.988;-4.186;2023-11-21T09:05:32;41.15;;;5.25;;
45033;SDS011;30771;47.988;-4.186;2023-11-21T09:07:59;33.30;;;5.70;;
45033;SDS011;30771;47.988;-4.186;2023-11-21T09:10:26;40.97;;;5.03;;
45033;SDS011;30771;47.988;-4.186;2023-11-21T09:12:52;37.10;;;5.30;;
45033;SDS011;30771;47.988;-4.186;2023-11-21T09:15:19;48.83;;;6.07;;
45033;SDS011;30771;47.988;-4.186;2023-11-21T09:17:46;40.63;;;5.13;;
45033;SDS011;30771;47.988;-4.186;2023-11-21T09:20:12;41.70;;;4.88;;
45033;SDS011;30771;47.988;-4.186;2023-11-21T09:22:39;45.50;;;5.32;;
45033;SDS011;30771;47.988;-4.186;2023-11-21T09:25:06;40.72;;;5.13;;
45033;SDS011;30771;47.988;-4.186;2023-11-21T09:27:33;36.25;;;5.40;;
45033;SDS011;30771;47.988;-4.186;2023-11-21T09:30:00;35.72;;;4.80;;
45033;SDS011;30771;47.988;-4.186;2023-11-21T09:32:27;37.65;;;4.82;;
45033;SDS011;30771;47.988;-4.186;2023-11-21T09:34:54;40.80;;;5.10;;
45033;SDS011;30771;47.988;-4.186;2023-11-21T09:37:20;48.47;;;5.97;;
45033;SDS011;30771;47.988;-4.186;2023-11-21T09:39:47;47.55;;;5.60;;
45033;SDS011;30771;47.988;-4.186;2023-11-21T09:42:19;37.65;;;5.18;;
45033;SDS011;30771;47.988;-4.186;2023-11-21T09:45:17;43.08;;;5.43;;
45033;SDS011;30771;47.988;-4.186;2023-11-21T09:47:47;35.30;;;4.82;;
45033;SDS011;30771;47.988;-4.186;2023-11-21T09:50:16;38.58;;;5.18;;
45033;SDS011;30771;47.988;-4.186;2023-11-21T09:55:26;31.50;;;4.47;;
45033;SDS011;30771;47.988;-4.186;2023-11-21T09:57:53;35.63;;;3.93;;
45033;SDS011;30771;47.988;-4.186;2023-11-21T10:00:22;30.15;;;5.28;;
45033;SDS011;30771;47.988;-4.186;2023-11-21T10:02:49;35.70;;;4.50;;
45033;SDS011;30771;47.988;-4.186;2023-11-21T10:05:17;28.60;;;3.72;;
45033;SDS011;30771;47.988;-4.186;2023-11-21T10:07:43;31.48;;;3.55;;
45033;SDS011;30771;47.988;-4.186;2023-11-21T10:10:11;36.60;;;4.32;;
45033;SDS011;30771;47.988;-4.186;2023-11-21T10:12:37;29.17;;;3.92;;
45033;SDS011;30771;47.988;-4.186;2023-11-21T10:15:06;19.75;;;3.00;;
45033;SDS011;30771;47.988;-4.186;2023-11-21T10:17:36;20.88;;;3.67;;
45033;SDS011;30771;47.988;-4.186;2023-11-21T10:20:04;19.50;;;2.80;;
45033;SDS011;30771;47.988;-4.186;2023-11-21T10:22:33;20.33;;;2.92;;
45033;SDS011;30771;47.988;-4.186;2023-11-21T10:24:59;22.48;;;3.40;;
45033;SDS011;30771;47.988;-4.186;2023-11-21T10:27:26;24.58;;;3.33;;
45033;SDS011;30771;47.988;-4.186;2023-11-21T10:29:53;22.55;;;2.78;;
45033;SDS011;30771;47.988;-4.186;2023-11-21T10:32:20;17.20;;;2.60;;
45033;SDS011;30771;47.988;-4.186;2023-11-21T10:34:56;16.85;;;2.47;;
45033;SDS011;30771;47.988;-4.186;2023-11-21T10:37:23;11.48;;;2.78;;
45033;SDS011;30771;47.988;-4.186;2023-11-21T10:39:49;17.95;;;2.55;;
45033;SDS011;30771;47.988;-4.186;2023-11-21T10:42:17;15.55;;;2.92;;
45033;SDS011;30771;47.988;-4.186;2023-11-21T10:44:45;15.43;;;2.83;;
45033;SDS011;30771;47.988;-4.186;2023-11-21T10:47:12;15.57;;;2.60;;
45033;SDS011;30771;47.988;-4.186;2023-11-21T10:49:40;17.95;;;2.22;;
45033;SDS011;30771;47.988;-4.186;2023-11-21T10:52:07;12.63;;;2.38;;
45033;SDS011;30771;47.988;-4.186;2023-11-21T10:54:33;16.25;;;2.22;;
45033;SDS011;30771;47.988;-4.186;2023-11-21T10:57:00;13.98;;;1.98;;
45033;SDS011;30771;47.988;-4.186;2023-11-21T10:59:29;13.50;;;2.33;;
45033;SDS011;30771;47.988;-4.186;2023-11-21T11:01:57;9.70;;;1.65;;
45033;SDS011;30771;47.988;-4.186;2023-11-21T11:04:25;10.77;;;2.00;;
45033;SDS011;30771;47.988;-4.186;2023-11-21T11:06:54;11.02;;;1.70;;
45033;SDS011;30771;47.988;-4.186;2023-11-21T11:09:23;11.93;;;1.77;;
45033;SDS011;30771;47.988;-4.186;2023-11-21T11:11:50;14.90;;;2.15;;
45033;SDS011;30771;47.988;-4.186;2023-11-21T11:14:18;11.18;;;2.10;;
45033;SDS011;30771;47.988;-4.186;2023-11-21T11:16:45;9.68;;;2.10;;
45033;SDS011;30771;47.988;-4.186;2023-11-21T11:19:12;13.88;;;2.17;;
45033;SDS011;30771;47.988;-4.186;2023-11-21T11:32:40;3.95;;;1.30;;
45033;SDS011;30771;47.988;-4.186;2023-11-21T11:35:19;5.57;;;1.73;;
45033;SDS011;30771;47.988;-4.186;2023-11-21T11:37:50;8.38;;;1.90;;
45033;SDS011;30771;47.988;-4.186;2023-11-21T11:40:17;7.85;;;1.83;;
45033;SDS011;30771;47.988;-4.186;2023-11-21T11:43:00;6.82;;;2.83;;
45033;SDS011;30771;47.988;-4.186;2023-11-21T11:45:34;9.70;;;1.80;;
45033;SDS011;30771;47.988;-4.186;2023-11-21T11:48:01;6.18;;;1.63;;
45033;SDS011;30771;47.988;-4.186;2023-11-21T11:50:29;10.38;;;1.63;;
45033;SDS011;30771;47.988;-4.186;2023-11-21T11:53:11;10.05;;;2.20;;
45033;SDS011;30771;47.988;-4.186;2023-11-21T11:55:39;11.68;;;2.10;;
45033;SDS011;30771;47.988;-4.186;2023-11-21T11:58:06;10.10;;;1.95;;
45033;SDS011;30771;47.988;-4.186;2023-11-21T12:00:35;12.52;;;2.33;;
45033;SDS011;30771;47.988;-4.186;2023-11-21T12:03:03;9.48;;;1.83;;
45033;SDS011;30771;47.988;-4.186;2023-11-21T12:05:31;16.40;;;2.13;;
45033;SDS011;30771;47.988;-4.186;2023-11-21T12:08:00;8.98;;;2.00;;
45033;SDS011;30771;47.988;-4.186;2023-11-21T12:10:29;13.88;;;1.98;;
45033;SDS011;30771;47.988;-4.186;2023-11-21T12:15:28;15.38;;;2.33;;
45033;SDS011;30771;47.988;-4.186;2023-11-21T12:17:55;12.65;;;2.28;;
45033;SDS011;30771;47.988;-4.186;2023-11-21T12:20:23;11.27;;;2.10;;
45033;SDS011;30771;47.988;-4.186;2023-11-21T12:22:51;12.93;;;2.30;;
45033;SDS011;30771;47.988;-4.186;2023-11-21T12:25:22;15.75;;;2.40;;
45033;SDS011;30771;47.988;-4.186;2023-11-21T12:27:53;11.18;;;1.70;;
45033;SDS011;30771;47.988;-4.186;2023-11-21T12:30:24;9.70;;;1.90;;
45033;SDS011;30771;47.988;-4.186;2023-11-21T12:32:52;9.20;;;2.05;;
45033;SDS011;30771;47.988;-4.186;2023-11-21T12:35:21;11.05;;;1.75;;
45033;SDS011;30771;47.988;-4.186;2023-11-21T12:37:49;10.77;;;2.10;;
45033;SDS011;30771;47.988;-4.186;2023-11-21T12:40:17;14.98;;;2.28;;
45033;SDS011;30771;47.988;-4.186;2023-11-21T12:42:45;11.93;;;2.53;;
45033;SDS011;30771;47.988;-4.186;2023-11-21T12:47:42;10.52;;;2.42;;
45033;SDS011;30771;47.988;-4.186;2023-11-21T12:50:10;20.80;;;3.15;;
45033;SDS011;30771;47.988;-4.186;2023-11-21T12:52:37;9.13;;;2.17;;
45033;SDS011;30771;47.988;-4.186;2023-11-21T12:55:04;13.98;;;2.40;;
45033;SDS011;30771;47.988;-4.186;2023-11-21T12:57:31;8.88;;;2.03;;
45033;SDS011;30771;47.988;-4.186;2023-11-21T13:00:00;10.80;;;2.22;;
45033;SDS011;30771;47.988;-4.186;2023-11-21T13:06:28;10.38;;;1.60;;
45033;SDS011;30771;47.988;-4.186;2023-11-21T13:08:55;9.90;;;1.60;;
45033;SDS011;30771;47.988;-4.186;2023-11-21T13:11:21;14.68;;;2.00;;
45033;SDS011;30771;47.988;-4.186;2023-11-21T13:13:50;10.18;;;2.00;;
45033;SDS011;30771;47.988;-4.186;2023-11-21T13:16:17;11.43;;;1.80;;
45033;SDS011;30771;47.988;-4.186;2023-11-21T13:18:44;8.05;;;1.63;;
45033;SDS011;30771;47.988;-4.186;2023-11-21T13:21:10;9.73;;;1.83;;
45033;SDS011;30771;47.988;-4.186;2023-11-21T13:23:37;8.82;;;1.80;;
45033;SDS011;30771;47.988;-4.186;2023-11-21T13:26:04;7.60;;;1.42;;
45033;SDS011;30771;47.988;-4.186;2023-11-21T13:28:33;12.50;;;1.45;;
45033;SDS011;30771;47.988;-4.186;2023-11-21T13:31:01;8.35;;;1.52;;
45033;SDS011;30771;47.988;-4.186;2023-11-21T13:33:28;12.10;;;1.80;;
45033;SDS011;30771;47.988;-4.186;2023-11-21T13:35:55;8.43;;;1.55;;
45033;SDS011;30771;47.988;-4.186;2023-11-21T13:38:22;7.93;;;1.33;;
45033;SDS011;30771;47.988;-4.186;2023-11-21T13:40:49;9.65;;;1.40;;
45033;SDS011;30771;47.988;-4.186;2023-11-21T13:43:17;12.20;;;1.73;;
45033;SDS011;30771;47.988;-4.186;2023-11-21T13:45:44;12.65;;;1.70;;
45033;SDS011;30771;47.988;-4.186;2023-11-21T13:48:12;7.97;;;1.85;;
45033;SDS011;30771;47.988;-4.186;2023-11-21T13:50:40;8.10;;;1.17;;
45033;SDS011;30771;47.988;-4.186;2023-11-21T13:53:06;9.35;;;1.58;;
45033;SDS011;30771;47.988;-4.186;2023-11-21T13:55:33;10.52;;;1.55;;
45033;SDS011;30771;47.988;-4.186;2023-11-21T13:57:59;8.73;;;2.38;;
45033;SDS011;30771;47.988;-4.186;2023-11-21T14:00:26;10.45;;;1.77;;
45033;SDS011;30771;47.988;-4.186;2023-11-21T14:02:52;9.40;;;1.88;;
45033;SDS011;30771;47.988;-4.186;2023-11-21T14:05:19;13.35;;;1.60;;
45033;SDS011;30771;47.988;-4.186;2023-11-21T14:07:46;14.18;;;2.20;;
45033;SDS011;30771;47.988;-4.186;2023-11-21T14:10:13;10.02;;;1.65;;
45033;SDS011;30771;47.988;-4.186;2023-11-21T14:12:40;10.43;;;1.95;;
45033;SDS011;30771;47.988;-4.186;2023-11-21T14:15:06;12.82;;;1.95;;
45033;SDS011;30771;47.988;-4.186;2023-11-21T14:17:33;6.88;;;1.55;;
45033;SDS011;30771;47.988;-4.186;2023-11-21T14:19:59;7.72;;;1.13;;
45033;SDS011;30771;47.988;-4.186;2023-11-21T14:22:26;9.15;;;1.65;;
45033;SDS011;30771;47.988;-4.186;2023-11-21T14:24:53;9.43;;;1.45;;
45033;SDS011;30771;47.988;-4.186;2023-11-21T14:27:19;8.40;;;1.60;;
45033;SDS011;30771;47.988;-4.186;2023-11-21T14:29:46;8.15;;;1.60;;
45033;SDS011;30771;47.988;-4.186;2023-11-21T14:32:12;9.32;;;1.30;;
45033;SDS011;30771;47.988;-4.186;2023-11-21T14:34:39;7.93;;;1.65;;
45033;SDS011;30771;47.988;-4.186;2023-11-21T14:37:05;8.90;;;1.30;;
45033;SDS011;30771;47.988;-4.186;2023-11-21T14:39:32;8.95;;;1.90;;
45033;SDS011;30771;47.988;-4.186;2023-11-21T14:41:58;16.02;;;1.88;;
45033;SDS011;30771;47.988;-4.186;2023-11-21T14:44:25;9.85;;;1.52;;
45033;SDS011;30771;47.988;-4.186;2023-11-21T14:46:52;15.73;;;1.40;;